• Join FlightAware (Why Join?)
  • Login
  • US Flag 
08:39AM EDT


 

Airport Tracker/Info


-or-


 

Live Flight TrackerFlight Track Log ✈ N749SS ✈ 07-Nov-2013 ✈ CYYZ - CYUL

Flight Track Log - Related Links

Times and Time Zones

All times are in EST time to prevent confusion due to time zone crossing. See the N749SS flight status page for this flight to view local times or setup timezone preferences in your user account.

Time Position Orientation Groundspeed Altitude Reporting Facility
EST Latitude Longitude Course Direction KTS MPH feet Rate Location/Type
05:47PM 43.6833 -79.6333 360° North 20 23 600  Level Toronto Center
05:49PM 43.6833 -79.6333 324° Northwest 20 23 600  Level Toronto Center
05:50PM 43.6833 -79.6167 90° East 10 12 600 120 Level Toronto Center
05:51PM 43.6667 -79.6333 216° Southwest 70 81 900 1,680 Climbing Toronto Center
05:52PM 43.6333 -79.6833 227° Southwest 180 207 4,000 3,000 Climbing Toronto Center
05:53PM 43.6000 -79.7500 235° Southwest 230 265 6,900 1,500 Climbing Toronto Center
05:54PM 43.5333 -79.7667 190° South 270 311 7,100  Climbing Toronto Center
05:55PM 43.5000 -79.6833 119° Southeast 290 334 7,000 -60 Descending Toronto Center
05:56PM 43.4833 -79.5667 101° East 290 334 7,000  Level Toronto Center
05:57PM 43.5000 -79.4667 77° East 290 334 7,100 1,200 Climbing Toronto Center
05:58PM 43.5333 -79.3500 68° East 280 322 9,500 2,940 Climbing Toronto Center
05:59PM 43.5500 -79.2500 77° East 320 368 13,000 3,600 Climbing Toronto Center
06:00PM 43.6000 -79.1000 65° Northeast 400 460 16,700 3,420 Climbing Toronto Center
06:01PM 43.6500 -78.9500 65° Northeast 450 518 19,900 3,720 Climbing Toronto Center
06:02PM 43.7000 -78.7500 71° East 460 529 24,200 4,020 Climbing Toronto Center
06:03PM 43.7333 -78.6167 71° East 470 541 28,000 2,400 Climbing Toronto Center
06:04PM 43.7833 -78.4333 69° East 490 564 29,000 480 Climbing Toronto Center
06:05PM 43.8333 -78.2500 69° East 500 575 29,000  Level Toronto Center
06:06PM 43.8833 -78.0833 67° East 500 575 29,000  Level Toronto Center
06:07PM 43.9333 -77.9000 69° East 500 575 29,000  Level Toronto Center
06:08PM 43.9833 -77.7167 69° East 500 575 29,000  Level Toronto Center
06:09PM 44.0333 -77.5167 71° East 510 587 29,000  Level Toronto Center
06:10PM 44.0833 -77.3500 67° East 510 587 29,000  Level Toronto Center
06:11PM 44.1667 -77.1667 58° Northeast 510 587 29,000  Level Toronto Center
06:12PM 44.2500 -77.0000 55° Northeast 520 598 29,000  Level Toronto Center
06:13PM 44.3333 -76.8333 55° Northeast 530 610 29,000  Level Toronto Center
06:14PM 44.4167 -76.6667 55° Northeast 530 610 29,000  Level Toronto Center
06:15PM 44.4833 -76.4833 63° Northeast 530 610 29,000  Level Toronto Center
06:16PM 44.5667 -76.3167 55° Northeast 540 621 29,000  Level Toronto Center
06:17PM 44.6500 -76.1167 60° Northeast 550 633 29,000  Level Toronto Center
06:18PM 44.7000 -75.9333 69° East 550 633 29,000  Level Toronto Center
06:19PM 44.7500 -75.7333 71° East 550 633 29,000  Level Toronto Center
06:20PM 44.8000 -75.5167 72° East 550 633 29,000  Level Toronto Center
06:21PM 44.8500 -75.3500 67° East 540 621 29,000 -540 Level Montreal Center
06:22PM 44.9000 -75.1667 69° East 540 621 28,000 -1,200 Descending Montreal Center
06:23PM 44.9500 -74.9667 70° East 540 621 26,600 -1,500 Descending Montreal Center
06:24PM 45.0333 -74.7833 57° Northeast 530 610 25,100 -1,560 Descending Montreal Center
06:25PM 45.1000 -74.6167 60° Northeast 450 518 23,500 -1,800 Descending Montreal Center
06:26PM 45.1667 -74.5000 51° Northeast 430 495 21,600 -1,860 Descending Montreal Center
06:27PM 45.2333 -74.3500 58° Northeast 410 472 19,800 -1,560 Descending Montreal Center
06:28PM 45.2833 -74.2000 65° Northeast 370 426 18,500 -1,260 Descending Montreal Center
06:29PM 45.3333 -74.1167 50° Northeast 340 391 17,300 -1,380 Descending Montreal Center
06:30PM 45.3833 -74.0167 55° Northeast 310 357 15,800 -1,380 Descending Montreal Center
06:31PM 45.4333 -73.9167 55° Northeast 300 345 14,600 -1,260 Descending Montreal Center
06:32PM 45.4833 -73.8333 49° Northeast 280 322 13,300 -1,260 Descending Montreal Center
06:33PM 45.4500 -73.7167 112° Southeast 280 322 12,100 -1,320 Descending Montreal Center
06:34PM 45.4000 -73.6333 130° Southeast 260 299 10,700 -1,500 Descending Montreal Center
06:35PM 45.4333 -73.5500 60° Northeast 240 276 9,100 -1,500 Descending Montreal Center
06:36PM 45.4833 -73.4833 43° Northeast 240 276 7,800 -1,080 Descending Montreal Center
06:37PM 45.5000 -73.4167 70° East 220 253 7,000 -540 Descending Montreal Center
06:38PM 45.4833 -73.3333 106° East 220 253 6,800 -540 Descending Montreal Center
06:39PM 45.5333 -73.3333 360° North 190 219 6,000 -420 Descending Montreal Center
06:40PM 45.5667 -73.3667 325° Northwest 190 219 6,000  Level Montreal Center
06:41PM 45.6167 -73.3167 35° Northeast 220 253 6,000 -480 Level Montreal Center
06:42PM 45.6667 -73.3333 347° North 200 230 5,100 -540 Descending Montreal Center
06:43PM 45.6667 -73.4000 270° West 200 230 5,000 -300 Descending Montreal Center
06:44PM 45.6333 -73.4833 240° Southwest 200 230 4,500 -600 Descending Montreal Center
06:45PM 45.6000 -73.5167 215° Southwest 190 219 3,900 -840 Descending Montreal Center
06:46PM 45.5667 -73.5667 226° Southwest 150 173 2,900 -960 Descending Montreal Center
06:47PM 45.5333 -73.6167 226° Southwest 140 161 2,100 -840 Descending Montreal Center
06:48PM 45.5000 -73.6500 215° Southwest 140 161 1,300 -840 Descending Montreal Center
06:49PM 45.4667 -73.7000 226° Southwest 140 161 500 -600 Descending Montreal Center
06:50PM 45.4500 -73.7167 215° Southwest 100 115 100 -240 Descending Montreal Center
06:51PM 45.4500 -73.7167 215° Southwest 20 23 100  Level Montreal Center
06:53PM 45.4500 -73.7167 90° East 20 23 100  Level Montreal Center
06:56PM 45.4667 -73.7167 360° North 20 23 100  Level Montreal Center